Mill River, Massachusetts
Current Conditions -  °F | °C
As of 7:54 AM on Thursday 18 Dec 2014 (Local Time) from KPSF Reporting Station
Overcast Overcast  
Wind Chill: 20°   Ceiling: 1200
Heat Index: 30°   Visibility: 10mi
Dew Point: 27°   Wind: 14mph
Humidity: 88%   Direction: 290°WNW
Pressure: 29.83"   Gusts: 24mph
Location:  42.11°N, 73.26°W
Report Text: KPSF 181254Z AUTO 29012G21KT 10SM OVC012 M01/M03 A2983 RMK AO2 SNE44 SLP109 P0000 T10111028
Loading
Personal Weather Stations






























Interactive Weather Map New forecast layout! Learn more

10-Day Weather Forecast

Advertisements
Track Severe Weather on mobile